KUOX/UOX METAR and TAF weather

Enter ICAO airport designator
Station Type Date Time Source
KUOX METAR 2019/04/25 08:15 UTC NOAA

KUOX 250815Z AUTO 16007KT 10SM CLR 19/16 A2983 RMK AO2


Station Type Date Time Source
KUOX Decoded METAR 2019/04/25 08:15 UTC NOAA

Oxford, University-Oxford Airport, MS, United States (KUOX) 34-23-04N 089-32-08W
Apr 25, 2019 - 04:15 AM EDT / 2019.04.25 0815 UTC
Wind: from the SSE (160 degrees) at 8 MPH (7 KT):0
Visibility: 10 mile(s):0
Sky conditions: clear
Temperature: 66 F (19 C)
Dew Point: 60 F (16 C)
Relative Humidity: 82%
Pressure (altimeter): 29.83 in. Hg (1010 hPa)
ob: KUOX 250815Z AUTO 16007KT 10SM CLR 19/16 A2983 RMK AO2
cycle: 8

Station Type Date Time Source
KUOX TAF UTC NOAA

Error!

Example: see airport list